createdAt,value
2022-07-27T00:05:42.956Z,21.24
2022-07-27T00:08:46.112Z,21.15
2022-07-27T00:11:50.002Z,21.09
2022-07-27T00:14:52.739Z,21.05
2022-07-27T00:17:56.913Z,20.95
2022-07-27T00:21:00.756Z,20.86
2022-07-27T00:24:03.551Z,20.92
2022-07-27T00:27:08.387Z,21.05
2022-07-27T00:30:12.069Z,21.03
2022-07-27T00:33:16.864Z,21.00
2022-07-27T00:36:20.295Z,20.91
2022-07-27T00:39:23.226Z,21.07
2022-07-27T00:42:28.164Z,21.18
2022-07-27T00:45:31.168Z,21.11
2022-07-27T00:48:33.938Z,21.07
2022-07-27T00:51:36.812Z,21.15
2022-07-27T00:54:39.636Z,21.21
2022-07-27T00:57:58.238Z,21.16
2022-07-27T01:01:02.804Z,21.19
2022-07-27T01:04:05.544Z,21.21
2022-07-27T01:07:08.498Z,21.14
2022-07-27T01:10:11.284Z,21.14
2022-07-27T01:13:17.109Z,21.14
2022-07-27T01:16:21.206Z,20.94
2022-07-27T01:19:24.024Z,20.76
2022-07-27T01:22:28.034Z,20.59
2022-07-27T01:25:30.761Z,20.39
2022-07-27T01:28:33.405Z,20.32
2022-07-27T01:31:36.195Z,20.22
2022-07-27T01:34:39.112Z,20.06
2022-07-27T01:37:42.986Z,20.00
2022-07-27T01:40:52.023Z,19.99
2022-07-27T01:43:54.670Z,19.99
2022-07-27T01:46:57.284Z,19.98
2022-07-27T01:50:00.179Z,20.02
2022-07-27T01:53:04.528Z,19.99
2022-07-27T01:56:12.375Z,19.96
2022-07-27T01:59:16.698Z,19.91
2022-07-27T02:02:19.829Z,19.97
2022-07-27T02:05:22.823Z,19.83
2022-07-27T02:08:27.146Z,19.83
2022-07-27T02:11:48.280Z,19.88
2022-07-27T02:14:51.011Z,19.87
2022-07-27T02:17:54.167Z,19.75
2022-07-27T02:20:57.318Z,19.55
2022-07-27T02:24:01.466Z,19.45
2022-07-27T02:27:04.211Z,19.27
2022-07-27T02:30:08.615Z,19.34
2022-07-27T02:33:11.441Z,19.31
2022-07-27T02:36:14.452Z,19.37
2022-07-27T02:39:18.407Z,19.16
2022-07-27T02:42:21.920Z,19.23
2022-07-27T02:45:24.778Z,19.26
2022-07-27T02:48:27.626Z,19.40
2022-07-27T02:51:30.304Z,19.51
2022-07-27T02:54:34.944Z,19.67
2022-07-27T02:57:37.913Z,19.71
2022-07-27T03:00:40.666Z,19.73
2022-07-27T03:03:43.424Z,19.58
2022-07-27T03:06:46.541Z,19.48
2022-07-27T03:09:52.648Z,19.28
2022-07-27T03:12:55.515Z,19.15
2022-07-27T03:15:58.643Z,19.01
2022-07-27T03:19:01.234Z,18.95
2022-07-27T03:22:03.950Z,19.00
2022-07-27T03:25:09.777Z,19.15
2022-07-27T03:28:12.572Z,19.16
2022-07-27T03:31:15.390Z,19.12
2022-07-27T03:34:18.576Z,19.03
2022-07-27T03:37:21.532Z,18.93
2022-07-27T03:40:32.603Z,18.90
2022-07-27T03:43:35.959Z,18.73
2022-07-27T03:46:38.564Z,18.61
2022-07-27T03:49:41.320Z,18.68
2022-07-27T03:52:45.436Z,18.77
2022-07-27T03:55:49.982Z,18.70
2022-07-27T03:58:52.826Z,18.65
2022-07-27T04:01:55.686Z,18.64
2022-07-27T04:04:58.521Z,18.56
2022-07-27T04:08:01.279Z,18.69
2022-07-27T04:11:05.910Z,18.74
2022-07-27T04:14:10.583Z,18.77
2022-07-27T04:17:56.164Z,18.79
2022-07-27T04:20:38.133Z,18.79
2022-07-27T04:23:40.935Z,18.89
2022-07-27T04:26:45.008Z,19.04
2022-07-27T04:29:47.705Z,18.98
2022-07-27T04:32:59.570Z,19.18
2022-07-27T04:36:02.371Z,19.05
2022-07-27T04:39:05.882Z,19.19
2022-07-27T04:42:12.551Z,19.41
2022-07-27T04:45:16.201Z,19.42
2022-07-27T04:48:19.055Z,19.42
2022-07-27T04:51:22.441Z,19.47
2022-07-27T04:54:25.954Z,19.57
2022-07-27T04:57:33.747Z,19.78
2022-07-27T05:00:37.178Z,19.90
2022-07-27T05:03:40.709Z,19.66
2022-07-27T05:06:43.628Z,19.61
2022-07-27T05:09:46.738Z,19.60
2022-07-27T05:12:51.096Z,19.71
2022-07-27T05:15:56.053Z,19.96
2022-07-27T05:18:59.070Z,20.00
2022-07-27T05:22:02.398Z,20.12
2022-07-27T05:25:05.715Z,20.05
2022-07-27T05:28:09.553Z,19.96
2022-07-27T05:31:12.112Z,19.93
2022-07-27T05:34:14.941Z,20.06
2022-07-27T05:37:17.583Z,20.31
2022-07-27T05:40:20.557Z,20.42
2022-07-27T05:43:24.555Z,20.53
2022-07-27T05:46:31.064Z,20.51
2022-07-27T05:49:35.638Z,20.59
2022-07-27T05:52:38.375Z,20.70
2022-07-27T05:55:58.367Z,20.85
2022-07-27T05:59:07.104Z,20.91
2022-07-27T06:02:10.424Z,20.91
2022-07-27T06:05:15.954Z,20.99
2022-07-27T06:08:19.608Z,21.38
2022-07-27T06:11:22.319Z,21.27
2022-07-27T06:14:26.467Z,21.30
2022-07-27T06:17:29.247Z,21.46
2022-07-27T06:20:32.116Z,21.60
2022-07-27T06:23:34.945Z,21.86
2022-07-27T06:26:37.686Z,22.02
2022-07-27T06:29:41.736Z,21.89
2022-07-27T06:32:44.373Z,21.70
2022-07-27T06:35:46.973Z,21.97
2022-07-27T06:38:50.165Z,22.26
2022-07-27T06:41:57.974Z,22.52
2022-07-27T06:45:02.470Z,22.84
2022-07-27T06:48:06.200Z,22.62
2022-07-27T06:51:09.622Z,22.81
2022-07-27T06:54:12.500Z,23.17
2022-07-27T06:57:15.702Z,23.64
2022-07-27T07:00:19.849Z,23.83
2022-07-27T07:03:22.642Z,23.76
2022-07-27T07:06:25.433Z,23.96
2022-07-27T07:09:28.621Z,24.14
2022-07-27T07:12:32.062Z,24.18
2022-07-27T07:15:37.918Z,24.59
2022-07-27T07:18:40.748Z,24.90
2022-07-27T07:21:43.412Z,24.36
2022-07-27T07:24:46.012Z,23.96
2022-07-27T07:27:48.933Z,24.03
2022-07-27T07:30:53.019Z,24.63
2022-07-27T07:33:55.779Z,24.92
2022-07-27T07:36:58.464Z,25.04
2022-07-27T07:40:13.003Z,25.23
2022-07-27T07:43:23.896Z,25.48
2022-07-27T07:46:28.265Z,25.70
2022-07-27T07:49:37.870Z,25.12
2022-07-27T07:52:42.864Z,25.46
2022-07-27T07:55:45.620Z,25.04
2022-07-27T07:58:48.845Z,25.32
2022-07-27T08:01:52.913Z,25.79
2022-07-27T08:04:55.685Z,25.85
2022-07-27T08:07:58.423Z,25.63
2022-07-27T08:11:01.253Z,25.65
2022-07-27T08:14:04.384Z,26.56
2022-07-27T08:17:08.316Z,26.56
2022-07-27T08:20:12.249Z,26.69
2022-07-27T08:23:14.882Z,26.25
2022-07-27T08:26:17.923Z,26.05
2022-07-27T08:29:23.253Z,26.09
2022-07-27T08:32:29.204Z,25.91
2022-07-27T08:35:33.006Z,26.35
2022-07-27T08:38:35.707Z,26.06
2022-07-27T08:41:39.899Z,25.98
2022-07-27T08:44:45.657Z,26.29
2022-07-27T08:47:49.713Z,25.65
2022-07-27T08:50:52.773Z,25.33
2022-07-27T08:53:55.323Z,25.71
2022-07-27T08:57:00.411Z,25.76
2022-07-27T09:00:03.548Z,25.50
2022-07-27T09:03:07.740Z,26.07
2022-07-27T09:06:10.478Z,26.53
2022-07-27T09:09:14.858Z,26.74
2022-07-27T09:12:18.436Z,26.84
2022-07-27T09:15:21.089Z,27.17
2022-07-27T09:18:27.214Z,26.77
2022-07-27T09:21:30.041Z,27.51
2022-07-27T09:24:48.235Z,27.29
2022-07-27T09:27:55.082Z,28.14
2022-07-27T09:31:06.433Z,28.01
2022-07-27T09:34:11.393Z,27.96
2022-07-27T09:37:24.655Z,27.91
2022-07-27T09:40:27.236Z,28.22
2022-07-27T09:46:53.015Z,28.23
2022-07-27T09:49:58.270Z,27.89
2022-07-27T09:53:41.529Z,28.05
2022-07-27T09:56:36.433Z,27.29
2022-07-27T09:59:39.133Z,26.24
2022-07-27T10:02:42.914Z,26.37
2022-07-27T10:05:47.155Z,26.44
2022-07-27T10:08:51.532Z,26.09
2022-07-27T10:11:54.816Z,26.02
2022-07-27T10:14:57.539Z,26.69
2022-07-27T10:18:07.354Z,26.26
2022-07-27T10:21:12.121Z,26.44
2022-07-27T10:24:27.040Z,26.68
2022-07-27T10:27:30.853Z,27.62
2022-07-27T10:30:33.555Z,28.35
2022-07-27T10:33:42.726Z,28.91
2022-07-27T10:36:52.116Z,27.98
2022-07-27T10:40:16.996Z,27.12
2022-07-27T10:43:21.151Z,27.38
2022-07-27T10:46:24.002Z,26.63
2022-07-27T10:49:28.289Z,27.00
2022-07-27T10:52:43.373Z,27.92
2022-07-27T10:55:53.277Z,28.44
2022-07-27T10:58:56.150Z,29.66
2022-07-27T11:01:59.504Z,30.16
2022-07-27T11:05:05.537Z,30.34
2022-07-27T11:08:36.472Z,30.86
2022-07-27T11:11:34.530Z,30.83
2022-07-27T11:14:46.249Z,30.81
2022-07-27T11:17:58.389Z,30.32
2022-07-27T11:21:15.190Z,29.54
2022-07-27T11:24:19.287Z,29.57
2022-07-27T11:27:25.205Z,29.62
2022-07-27T11:30:29.415Z,30.23
2022-07-27T11:33:32.416Z,30.65
2022-07-27T11:36:43.179Z,30.51
2022-07-27T11:40:20.259Z,30.81
2022-07-27T11:43:14.509Z,31.69
2022-07-27T11:46:21.206Z,31.71
2022-07-27T11:49:28.651Z,32.95
2022-07-27T11:52:31.455Z,33.06
2022-07-27T11:55:35.437Z,32.13
2022-07-27T11:59:09.359Z,30.88
2022-07-27T12:02:14.074Z,31.68
2022-07-27T12:05:17.089Z,30.41
2022-07-27T12:08:20.063Z,29.88
2022-07-27T12:11:34.294Z,29.39
2022-07-27T12:14:39.213Z,29.47
2022-07-27T12:17:43.320Z,29.99
2022-07-27T12:20:48.586Z,30.63
2022-07-27T12:23:52.847Z,31.67
2022-07-27T12:27:08.410Z,31.99
2022-07-27T12:30:12.400Z,30.82
2022-07-27T12:33:28.302Z,31.87
2022-07-27T12:36:31.541Z,31.66
2022-07-27T12:39:34.373Z,30.61
2022-07-27T12:42:38.353Z,30.94
2022-07-27T12:45:41.227Z,31.50
2022-07-27T12:48:44.264Z,31.70
2022-07-27T12:51:46.970Z,31.91
2022-07-27T12:54:49.707Z,32.48
2022-07-27T12:57:56.479Z,33.93
2022-07-27T13:00:59.922Z,30.77
2022-07-27T13:04:02.860Z,29.76
2022-07-27T13:07:05.552Z,34.90
2022-07-27T13:10:11.216Z,41.40
2022-07-27T13:13:15.428Z,42.80
2022-07-27T13:16:18.298Z,43.91
2022-07-27T13:19:21.032Z,45.40
2022-07-27T13:22:23.929Z,47.83
2022-07-27T13:25:26.829Z,44.30
2022-07-27T13:28:30.855Z,38.48
2022-07-27T13:31:33.678Z,35.73
2022-07-27T13:34:36.459Z,34.00
2022-07-27T13:37:41.902Z,34.50
2022-07-27T13:40:45.042Z,32.38
2022-07-27T13:43:49.082Z,31.65
2022-07-27T13:46:51.855Z,39.45
2022-07-27T13:49:56.338Z,40.34
2022-07-27T13:52:59.043Z,39.81
2022-07-27T13:56:03.110Z,41.08
2022-07-27T13:59:08.030Z,40.99
2022-07-27T14:02:11.594Z,39.59
2022-07-27T14:05:15.981Z,43.24
2022-07-27T14:08:22.025Z,42.02
2022-07-27T14:11:24.773Z,37.07
2022-07-27T14:14:28.804Z,36.21
2022-07-27T14:17:31.472Z,41.99
2022-07-27T14:20:34.550Z,41.85
2022-07-27T14:23:38.120Z,38.82
2022-07-27T14:26:40.856Z,42.32
2022-07-27T14:29:44.947Z,44.09
2022-07-27T14:32:47.654Z,46.97
2022-07-27T14:35:50.312Z,45.81
2022-07-27T14:38:53.519Z,40.17
2022-07-27T14:41:56.287Z,34.85
2022-07-27T14:45:00.325Z,32.45
2022-07-27T14:48:03.193Z,36.39
2022-07-27T14:51:06.515Z,40.96
2022-07-27T14:54:09.113Z,43.35
2022-07-27T14:57:11.949Z,41.43
2022-07-27T15:00:17.683Z,36.88
2022-07-27T15:03:21.242Z,36.71
2022-07-27T15:06:24.012Z,41.51
2022-07-27T15:09:28.450Z,42.71
2022-07-27T15:12:34.890Z,48.99
2022-07-27T15:15:41.639Z,49.98
2022-07-27T15:18:45.815Z,43.96
2022-07-27T15:21:48.787Z,37.65
2022-07-27T15:24:52.564Z,39.62
2022-07-27T15:27:55.416Z,39.95
2022-07-27T15:30:59.498Z,35.42
2022-07-27T15:34:02.115Z,34.01
2022-07-27T15:37:07.361Z,40.36
2022-07-27T15:40:28.722Z,45.85
2022-07-27T15:43:31.460Z,48.97
2022-07-27T15:46:35.765Z,42.29
2022-07-27T15:49:38.709Z,41.68
2022-07-27T15:52:41.461Z,41.17
2022-07-27T15:55:44.541Z,41.59
2022-07-27T15:58:47.202Z,43.09
2022-07-27T16:01:51.364Z,43.95
2022-07-27T16:04:56.382Z,45.57
2022-07-27T16:07:59.256Z,47.39
2022-07-27T16:11:01.979Z,46.50
2022-07-27T16:14:04.840Z,41.79
2022-07-27T16:17:09.044Z,34.27
2022-07-27T16:20:13.386Z,32.66
2022-07-27T16:23:18.632Z,34.01
2022-07-27T16:26:24.471Z,37.26
2022-07-27T16:29:28.435Z,41.43
2022-07-27T16:32:32.696Z,43.60
2022-07-27T16:35:35.513Z,40.92
2022-07-27T16:38:49.790Z,39.22
2022-07-27T16:41:53.105Z,37.64
2022-07-27T16:44:56.315Z,38.63
2022-07-27T16:48:00.554Z,35.69
2022-07-27T16:51:03.325Z,34.22
2022-07-27T16:54:06.339Z,37.00
2022-07-27T16:57:10.692Z,39.35
2022-07-27T17:00:15.307Z,40.98
2022-07-27T17:03:19.274Z,42.45
2022-07-27T17:06:22.006Z,42.51
2022-07-27T17:09:24.757Z,43.04
2022-07-27T17:12:27.430Z,42.68
2022-07-27T17:15:31.480Z,39.96
2022-07-27T17:18:40.130Z,35.49
2022-07-27T17:21:43.421Z,31.38
2022-07-27T17:24:46.388Z,29.60
2022-07-27T17:27:49.267Z,28.84
2022-07-27T17:30:52.174Z,28.14
2022-07-27T17:33:57.115Z,27.90
2022-07-27T17:37:00.018Z,27.89
2022-07-27T17:40:02.822Z,27.75
2022-07-27T17:43:05.866Z,27.62
2022-07-27T17:46:10.354Z,27.42
2022-07-27T17:49:15.043Z,27.32
2022-07-27T17:52:18.005Z,26.51
2022-07-27T17:55:20.526Z,26.62
2022-07-27T17:58:28.043Z,26.61
2022-07-27T18:01:47.144Z,26.39
2022-07-27T18:04:52.445Z,26.05
2022-07-27T18:07:55.278Z,26.01
2022-07-27T18:10:57.789Z,25.99
2022-07-27T18:14:00.446Z,25.97
2022-07-27T18:17:03.344Z,25.93
2022-07-27T18:20:10.326Z,25.97
2022-07-27T18:23:13.056Z,25.71
2022-07-27T18:26:15.646Z,25.63
2022-07-27T18:29:18.429Z,25.52
2022-07-27T18:32:20.990Z,25.25
2022-07-27T18:35:25.425Z,25.03
2022-07-27T18:38:28.284Z,24.79
2022-07-27T18:41:30.811Z,24.64
2022-07-27T18:44:38.798Z,24.47
2022-07-27T18:47:41.770Z,24.31
2022-07-27T18:50:53.843Z,24.17
2022-07-27T18:53:56.564Z,24.10
2022-07-27T18:56:59.880Z,24.08
2022-07-27T19:00:02.872Z,24.15
2022-07-27T19:03:06.061Z,24.17
2022-07-27T19:06:17.970Z,24.21
2022-07-27T19:09:21.671Z,24.21
2022-07-27T19:12:24.270Z,24.28
2022-07-27T19:15:27.062Z,24.40
2022-07-27T19:18:29.954Z,24.41
2022-07-27T19:21:34.043Z,24.41
2022-07-27T19:24:36.910Z,24.41
2022-07-27T19:27:40.131Z,24.40
2022-07-27T19:30:43.249Z,24.32
2022-07-27T19:33:46.721Z,24.22
2022-07-27T19:36:50.782Z,24.13
2022-07-27T19:39:57.298Z,24.02
2022-07-27T19:43:06.009Z,23.89
2022-07-27T19:46:09.150Z,23.75
2022-07-27T19:49:12.302Z,23.66
2022-07-27T19:52:17.324Z,23.60
2022-07-27T19:55:20.138Z,23.46
2022-07-27T19:58:23.406Z,23.24
2022-07-27T20:01:26.416Z,23.04
2022-07-27T20:04:29.069Z,22.95
2022-07-27T20:07:33.222Z,22.78
2022-07-27T20:10:36.011Z,22.74
2022-07-27T20:13:38.725Z,22.60
2022-07-27T20:16:41.827Z,22.45
2022-07-27T20:19:45.229Z,22.40
2022-07-27T20:22:49.277Z,22.35
2022-07-27T20:25:52.215Z,22.27
2022-07-27T20:28:55.032Z,22.26
2022-07-27T20:31:57.979Z,22.26
2022-07-27T20:35:01.290Z,22.14
2022-07-27T20:38:05.214Z,21.94
2022-07-27T20:41:07.932Z,22.00
2022-07-27T20:44:10.699Z,22.03
2022-07-27T20:47:14.673Z,22.11
2022-07-27T20:50:17.619Z,22.03
2022-07-27T20:53:21.742Z,22.10
2022-07-27T20:56:24.612Z,22.21
2022-07-27T20:59:28.381Z,22.25
2022-07-27T21:02:31.075Z,22.27
2022-07-27T21:05:34.853Z,22.38
2022-07-27T21:08:44.293Z,22.37
2022-07-27T21:11:50.660Z,22.41
2022-07-27T21:14:53.279Z,22.35
2022-07-27T21:17:56.129Z,22.33
2022-07-27T21:20:59.072Z,22.36
2022-07-27T21:24:18.084Z,22.37
2022-07-27T21:27:21.550Z,22.33
2022-07-27T21:30:24.404Z,22.29
2022-07-27T21:33:27.089Z,22.05
2022-07-27T21:36:29.751Z,21.86
2022-07-27T21:39:33.781Z,21.64
2022-07-27T21:42:36.472Z,21.57
2022-07-27T21:45:39.220Z,21.58
2022-07-27T21:48:50.705Z,21.54
2022-07-27T21:51:53.521Z,21.33
2022-07-27T21:54:59.908Z,21.18
2022-07-27T21:58:02.649Z,21.06
2022-07-27T22:01:05.635Z,21.07
2022-07-27T22:04:10.452Z,21.00
2022-07-27T22:07:19.040Z,21.09
2022-07-27T22:10:23.828Z,21.00
2022-07-27T22:13:26.581Z,20.87
2022-07-27T22:16:29.353Z,20.95
2022-07-27T22:19:32.053Z,20.76
2022-07-27T22:22:34.998Z,20.64
2022-07-27T22:25:39.190Z,20.56
2022-07-27T22:28:42.143Z,20.47
2022-07-27T22:31:45.006Z,20.41
2022-07-27T22:34:47.899Z,20.37
2022-07-27T22:37:50.756Z,20.45
2022-07-27T22:40:54.833Z,20.40
2022-07-27T22:43:57.590Z,20.43
2022-07-27T22:47:00.432Z,20.34
2022-07-27T22:50:04.038Z,20.25
2022-07-27T22:53:06.709Z,20.26
2022-07-27T22:56:10.821Z,20.25
2022-07-27T22:59:13.416Z,20.15
2022-07-27T23:02:16.158Z,20.15
2022-07-27T23:05:18.941Z,20.18
2022-07-27T23:08:21.853Z,20.23
2022-07-27T23:11:25.848Z,20.40
2022-07-27T23:14:30.041Z,20.48
2022-07-27T23:17:32.702Z,20.48
2022-07-27T23:20:35.394Z,20.51
2022-07-27T23:23:39.866Z,20.52
2022-07-27T23:26:54.213Z,20.49
2022-07-27T23:29:56.918Z,20.51
2022-07-27T23:32:59.562Z,20.50
2022-07-27T23:36:06.138Z,20.50
2022-07-27T23:39:08.790Z,20.44
2022-07-27T23:42:13.071Z,20.46
2022-07-27T23:45:15.811Z,20.49
2022-07-27T23:48:18.898Z,20.48
2022-07-27T23:51:21.623Z,20.39
2022-07-27T23:54:24.542Z,20.25
2022-07-27T23:57:28.790Z,20.16
